createdAt,value
2018-07-02T00:00:46.719Z,101001.73
2018-07-02T00:03:12.689Z,101004.06
2018-07-02T00:05:38.653Z,101001.61
2018-07-02T00:08:04.639Z,100998.79
2018-07-02T00:10:30.616Z,100996.16
2018-07-02T00:12:56.609Z,100994.81
2018-07-02T00:15:22.593Z,100991.48
2018-07-02T00:17:48.563Z,100983.39
2018-07-02T00:20:14.545Z,100990.16
2018-07-02T00:22:40.538Z,100988.48
2018-07-02T00:25:06.604Z,100990.13
2018-07-02T00:27:32.635Z,100997.58
2018-07-02T00:29:58.593Z,100997.58
2018-07-02T00:32:24.559Z,100993.28
2018-07-02T00:34:50.527Z,100995.08
2018-07-02T00:37:16.516Z,100993.37
2018-07-02T00:39:42.515Z,100991.08
2018-07-02T00:42:08.487Z,100987.13
2018-07-02T00:44:34.476Z,100988.39
2018-07-02T00:47:00.459Z,100990.72
2018-07-02T00:49:26.430Z,100984.09
2018-07-02T00:51:52.426Z,100980.85
2018-07-02T00:54:18.410Z,100971.12
2018-07-02T00:56:44.386Z,100977.58
2018-07-02T00:59:10.364Z,100985.00
2018-07-02T01:01:36.327Z,100977.38
2018-07-02T01:04:02.310Z,100983.68
2018-07-02T01:06:28.275Z,100981.38
2018-07-02T01:08:54.254Z,100975.87
2018-07-02T01:11:20.231Z,100977.14
2018-07-02T01:13:46.208Z,100974.16
2018-07-02T01:16:12.180Z,100976.81
2018-07-02T01:18:38.157Z,100971.84
2018-07-02T01:21:04.127Z,100983.20
2018-07-02T01:23:30.043Z,100975.61
2018-07-02T01:25:56.034Z,100979.41
2018-07-02T01:28:22.044Z,100980.41
2018-07-02T01:30:48.004Z,100979.37
2018-07-02T01:33:14.029Z,100975.61
2018-07-02T01:35:40.009Z,100972.81
2018-07-02T01:38:06.060Z,100983.41
2018-07-02T01:40:32.087Z,100982.62
2018-07-02T01:42:58.080Z,100985.13
2018-07-02T01:45:24.067Z,100980.38
2018-07-02T01:47:50.035Z,100976.17
2018-07-02T01:50:16.032Z,100975.84
2018-07-02T01:52:42.819Z,100984.12
2018-07-02T01:55:08.818Z,100980.77
2018-07-02T01:57:34.807Z,100995.66
2018-07-02T02:00:00.797Z,100991.87
2018-07-02T02:02:26.774Z,100991.98
2018-07-02T02:04:52.767Z,100993.66
2018-07-02T02:07:18.816Z,100993.02
2018-07-02T02:09:44.823Z,100999.42
2018-07-02T02:12:10.886Z,101003.91
2018-07-02T02:14:36.852Z,101002.86
2018-07-02T02:17:02.935Z,101001.11
2018-07-02T02:19:28.897Z,100996.92
2018-07-02T02:21:54.867Z,100998.20
2018-07-02T02:24:20.841Z,100995.91
2018-07-02T02:26:46.838Z,100998.64
2018-07-02T02:29:12.811Z,101001.14
2018-07-02T02:31:38.747Z,100990.83
2018-07-02T02:34:04.723Z,100993.34
2018-07-02T02:36:30.702Z,100995.16
2018-07-02T02:38:56.684Z,100994.69
2018-07-02T02:41:22.686Z,100991.69
2018-07-02T02:43:48.647Z,100994.95
2018-07-02T02:46:14.619Z,100998.56
2018-07-02T02:48:40.590Z,101000.58
2018-07-02T02:51:06.597Z,101000.43
2018-07-02T02:53:32.570Z,101000.39
2018-07-02T02:55:58.594Z,100997.92
2018-07-02T02:58:24.568Z,100992.91
2018-07-02T03:00:50.504Z,100986.78
2018-07-02T03:03:16.632Z,100981.66
2018-07-02T03:05:42.680Z,100983.17
2018-07-02T03:08:08.664Z,100985.96
2018-07-02T03:10:34.656Z,100982.28
2018-07-02T03:13:00.620Z,100977.66
2018-07-02T03:15:26.593Z,100974.18
2018-07-02T03:17:52.640Z,100982.31
2018-07-02T03:20:18.669Z,100982.31
2018-07-02T03:22:44.596Z,100982.45
2018-07-02T03:25:10.564Z,100980.95
2018-07-02T03:27:36.551Z,100982.31
2018-07-02T03:30:02.561Z,100982.45
2018-07-02T03:32:28.547Z,100986.89
2018-07-02T03:34:54.559Z,100993.15
2018-07-02T03:37:20.524Z,101000.09
2018-07-02T03:39:46.512Z,100995.30
2018-07-02T03:42:12.583Z,101003.75
2018-07-02T03:44:38.580Z,101000.95
2018-07-02T03:47:04.567Z,101006.80
2018-07-02T03:49:30.519Z,101008.36
2018-07-02T03:51:56.535Z,101018.14
2018-07-02T03:54:22.479Z,101021.14
2018-07-02T03:56:48.456Z,101024.94
2018-07-02T03:59:14.423Z,101019.46
2018-07-02T04:01:40.392Z,101019.96
2018-07-02T04:04:06.342Z,101017.31
2018-07-02T04:06:32.381Z,101023.25
2018-07-02T04:08:58.359Z,101016.77
2018-07-02T04:11:24.350Z,101015.16
2018-07-02T04:13:50.332Z,101015.94
2018-07-02T04:16:16.319Z,101016.77
2018-07-02T04:18:42.330Z,101014.76
2018-07-02T04:21:08.304Z,101020.10
2018-07-02T04:23:34.385Z,101019.81
2018-07-02T04:26:00.434Z,101021.43
2018-07-02T04:28:26.363Z,101019.23
2018-07-02T04:30:52.343Z,101027.87
2018-07-02T04:33:18.346Z,101025.08
2018-07-02T04:35:44.331Z,101021.88
2018-07-02T04:38:10.329Z,101030.19
2018-07-02T04:40:36.308Z,101024.84
2018-07-02T04:43:02.309Z,101021.20
2018-07-02T04:45:28.374Z,101026.81
2018-07-02T04:47:54.372Z,101029.55
2018-07-02T04:50:20.379Z,101022.56
2018-07-02T04:52:46.369Z,101031.16
2018-07-02T04:55:12.364Z,101030.09
2018-07-02T04:57:38.361Z,101031.38
2018-07-02T05:00:04.342Z,101027.00
2018-07-02T05:02:30.330Z,101025.90
2018-07-02T05:04:56.298Z,101022.56
2018-07-02T05:07:22.350Z,101018.86
2018-07-02T05:09:48.324Z,101020.55
2018-07-02T05:12:14.421Z,101019.87
2018-07-02T05:14:40.374Z,101017.91
2018-07-02T05:17:06.345Z,101021.23
2018-07-02T05:19:32.318Z,101013.94
2018-07-02T05:21:58.288Z,101015.94
2018-07-02T05:24:24.294Z,101013.11
2018-07-02T05:26:50.288Z,101005.45
2018-07-02T05:29:16.287Z,101004.48
2018-07-02T05:31:42.265Z,101001.33
2018-07-02T05:34:08.245Z,100998.64
2018-07-02T05:36:34.280Z,101002.93
2018-07-02T05:39:00.271Z,100998.23
2018-07-02T05:41:26.247Z,101000.70
2018-07-02T05:43:52.215Z,101008.64
2018-07-02T05:46:18.527Z,101001.09
2018-07-02T05:48:44.504Z,101001.74
2018-07-02T05:51:10.494Z,101006.86
2018-07-02T05:53:36.471Z,101006.00
2018-07-02T05:56:02.451Z,101002.10
2018-07-02T05:58:28.437Z,101005.89
2018-07-02T06:00:54.516Z,101005.91
2018-07-02T06:03:20.486Z,101007.55
2018-07-02T06:05:46.531Z,101010.73
2018-07-02T06:08:12.565Z,101007.72
2018-07-02T06:10:38.685Z,101006.72
2018-07-02T06:13:04.668Z,101005.39
2018-07-02T06:15:30.664Z,101014.53
2018-07-02T06:17:56.680Z,101022.02
2018-07-02T06:20:22.685Z,101022.66
2018-07-02T06:22:48.652Z,101018.54
2018-07-02T06:25:15.437Z,101011.88
2018-07-02T06:27:41.483Z,101019.87
2018-07-02T06:30:07.482Z,101013.11
2018-07-02T06:32:33.457Z,101018.08
2018-07-02T06:34:59.419Z,101020.05
2018-07-02T06:37:25.424Z,101012.46
2018-07-02T06:39:51.395Z,101019.44
2018-07-02T06:42:17.360Z,101027.93
2018-07-02T06:44:43.337Z,101025.60
2018-07-02T06:47:09.311Z,101027.47
2018-07-02T06:49:35.340Z,101021.13
2018-07-02T06:52:01.376Z,101026.17
2018-07-02T06:54:27.414Z,101023.84
2018-07-02T06:56:53.394Z,101018.05
2018-07-02T06:59:19.361Z,101024.53
2018-07-02T07:01:45.325Z,101026.00
2018-07-02T07:04:11.290Z,101035.34
2018-07-02T07:06:37.259Z,101034.84
2018-07-02T07:09:03.276Z,101035.34
2018-07-02T07:11:29.253Z,101035.95
2018-07-02T07:13:55.232Z,101035.48
2018-07-02T07:16:21.204Z,101040.32
2018-07-02T07:18:47.328Z,101041.50
2018-07-02T07:21:13.324Z,101046.16
2018-07-02T07:23:39.283Z,101036.27
2018-07-02T07:26:05.252Z,101035.91
2018-07-02T07:28:31.397Z,101038.38
2018-07-02T07:30:57.405Z,101037.08
2018-07-02T07:33:23.377Z,101034.58
2018-07-02T07:35:49.375Z,101031.81
2018-07-02T07:38:15.356Z,101030.95
2018-07-02T07:40:41.352Z,101031.16
2018-07-02T07:43:07.343Z,101040.41
2018-07-02T07:45:33.364Z,101029.34
2018-07-02T07:47:59.337Z,101040.09
2018-07-02T07:50:25.392Z,101037.62
2018-07-02T07:52:51.366Z,101030.52
2018-07-02T07:55:17.324Z,101033.31
2018-07-02T07:57:43.347Z,101028.16
2018-07-02T08:00:09.338Z,101028.21
2018-07-02T08:02:35.334Z,101031.34
2018-07-02T08:05:01.422Z,101035.99
2018-07-02T08:07:27.482Z,101029.54
2018-07-02T08:09:53.499Z,101035.49
2018-07-02T08:12:19.504Z,101040.09
2018-07-02T08:14:45.466Z,101026.58
2018-07-02T08:17:11.446Z,101026.83
2018-07-02T08:19:37.410Z,101025.33
2018-07-02T08:22:03.454Z,101026.33
2018-07-02T08:24:29.426Z,101029.84
2018-07-02T08:26:55.408Z,101040.94
2018-07-02T08:29:21.427Z,101039.80
2018-07-02T08:31:47.410Z,101037.14
2018-07-02T08:34:13.380Z,101031.52
2018-07-02T08:36:39.544Z,101032.06
2018-07-02T08:39:05.649Z,101030.22
2018-07-02T08:41:31.807Z,101030.39
2018-07-02T08:43:57.779Z,101024.38
2018-07-02T08:46:23.770Z,101021.78
2018-07-02T08:48:49.755Z,101023.53
2018-07-02T08:51:15.728Z,101022.70
2018-07-02T08:53:41.736Z,101016.81
2018-07-02T08:56:07.687Z,101026.61
2018-07-02T08:58:33.659Z,101025.41
2018-07-02T09:00:59.639Z,101021.75
2018-07-02T09:03:25.607Z,101018.28
2018-07-02T09:05:51.552Z,101015.82
2018-07-02T09:08:17.529Z,101024.23
2018-07-02T09:10:43.525Z,101023.78
2018-07-02T09:13:09.473Z,101021.13
2018-07-02T09:15:35.448Z,101018.43
2018-07-02T09:18:01.404Z,101013.16
2018-07-02T09:20:27.379Z,101018.66
2018-07-02T09:22:53.356Z,101025.09
2018-07-02T09:25:19.326Z,101014.83
2018-07-02T09:27:45.300Z,101016.19
2018-07-02T09:30:11.271Z,101027.56
2018-07-02T09:32:37.268Z,101024.76
2018-07-02T09:35:03.234Z,101023.99
2018-07-02T09:37:29.214Z,101020.82
2018-07-02T09:39:55.208Z,101016.50
2018-07-02T09:42:21.193Z,101020.48
2018-07-02T09:44:47.172Z,101021.26
2018-07-02T09:47:13.143Z,101019.78
2018-07-02T09:49:39.104Z,101021.47
2018-07-02T09:52:05.176Z,101015.67
2018-07-02T09:54:31.138Z,101020.61
2018-07-02T09:56:57.116Z,101015.12
2018-07-02T09:59:23.181Z,101014.15
2018-07-02T10:01:49.169Z,101018.30
2018-07-02T10:04:15.121Z,101023.44
2018-07-02T10:06:41.184Z,101019.97
2018-07-02T10:09:07.106Z,101023.13
2018-07-02T10:11:33.100Z,101019.50
2018-07-02T10:13:59.022Z,101021.47
2018-07-02T10:16:24.980Z,101016.14
2018-07-02T10:18:50.950Z,101018.12
2018-07-02T10:21:16.964Z,101014.97
2018-07-02T10:23:43.045Z,101008.86
2018-07-02T10:26:08.936Z,101007.19
2018-07-02T10:28:34.915Z,101008.75
2018-07-02T10:31:00.926Z,101013.31
2018-07-02T10:33:26.835Z,101005.58
2018-07-02T10:35:52.809Z,101009.39
2018-07-02T10:38:18.759Z,101000.08
2018-07-02T10:40:44.731Z,101000.41
2018-07-02T10:43:10.690Z,100996.41
2018-07-02T10:45:36.667Z,100996.38
2018-07-02T10:48:02.611Z,100987.45
2018-07-02T10:50:28.645Z,100988.12
2018-07-02T10:52:54.551Z,100993.77
2018-07-02T10:55:20.518Z,100985.95
2018-07-02T10:57:46.552Z,100992.95
2018-07-02T11:00:12.552Z,100996.91
2018-07-02T11:02:38.556Z,100993.30
2018-07-02T11:05:04.524Z,100993.78
2018-07-02T11:07:30.506Z,100997.61
2018-07-02T11:09:56.567Z,100997.92
2018-07-02T11:12:22.560Z,100997.28
2018-07-02T11:14:48.655Z,100998.23
2018-07-02T11:17:14.652Z,100994.13
2018-07-02T11:19:40.612Z,100993.45
2018-07-02T11:22:06.584Z,100995.11
2018-07-02T11:24:32.541Z,100988.97
2018-07-02T11:26:58.538Z,100987.34
2018-07-02T11:29:24.509Z,100989.33
2018-07-02T11:31:50.496Z,100982.64
2018-07-02T11:34:16.473Z,100985.31
2018-07-02T11:36:42.431Z,100985.83
2018-07-02T11:39:08.407Z,100980.38
2018-07-02T11:41:34.443Z,100977.86
2018-07-02T11:44:00.430Z,100974.23
2018-07-02T11:46:26.394Z,100968.57
2018-07-02T11:48:52.374Z,100969.55
2018-07-02T11:51:18.361Z,100964.59
2018-07-02T11:53:44.399Z,100961.81
2018-07-02T11:56:10.362Z,100965.13
2018-07-02T11:58:36.326Z,100967.24
2018-07-02T12:01:02.417Z,100968.09
2018-07-02T12:03:28.398Z,100961.47
2018-07-02T12:05:54.390Z,100968.92
2018-07-02T12:08:20.356Z,100972.89
2018-07-02T12:10:46.311Z,100973.89
2018-07-02T12:13:12.266Z,100978.06
2018-07-02T12:15:38.238Z,100970.41
2018-07-02T12:18:04.269Z,100975.39
2018-07-02T12:20:30.219Z,100974.05
2018-07-02T12:22:56.171Z,100983.37
2018-07-02T12:25:22.126Z,100971.91
2018-07-02T12:27:48.083Z,100970.61
2018-07-02T12:30:14.087Z,100970.09
2018-07-02T12:32:40.060Z,100961.80
2018-07-02T12:35:06.021Z,100954.52
2018-07-02T12:37:31.975Z,100947.88
2018-07-02T12:39:57.949Z,100955.50
2018-07-02T12:42:23.957Z,100956.65
2018-07-02T12:44:49.946Z,100954.67
2018-07-02T12:47:15.923Z,100952.51
2018-07-02T12:49:41.902Z,100951.84
2018-07-02T12:52:07.883Z,100954.00
2018-07-02T12:54:33.849Z,100951.70
2018-07-02T12:56:59.832Z,100953.08
2018-07-02T12:59:25.841Z,100951.87
2018-07-02T13:01:51.919Z,100947.89
2018-07-02T13:04:17.961Z,100951.52
2018-07-02T13:06:43.942Z,100953.53
2018-07-02T13:09:09.931Z,100959.13
2018-07-02T13:11:35.916Z,100951.20
2018-07-02T13:14:01.897Z,100949.69
2018-07-02T13:16:27.971Z,100941.41
2018-07-02T13:18:54.022Z,100944.20
2018-07-02T13:21:20.059Z,100938.25
2018-07-02T13:23:45.999Z,100939.39
2018-07-02T13:26:12.074Z,100937.91
2018-07-02T13:28:38.050Z,100937.09
2018-07-02T13:31:04.044Z,100931.95
2018-07-02T13:33:30.035Z,100935.09
2018-07-02T13:35:56.024Z,100938.92
2018-07-02T13:38:22.009Z,100936.27
2018-07-02T13:40:47.991Z,100937.26
2018-07-02T13:43:14.096Z,100936.61
2018-07-02T13:45:40.069Z,100937.59
2018-07-02T13:48:06.115Z,100932.63
2018-07-02T13:50:32.099Z,100935.28
2018-07-02T13:52:58.075Z,100930.96
2018-07-02T13:55:24.071Z,100933.11
2018-07-02T13:57:49.996Z,100925.98
2018-07-02T14:00:16.050Z,100920.37
2018-07-02T14:02:42.022Z,100921.36
2018-07-02T14:05:07.970Z,100919.05
2018-07-02T14:07:33.967Z,100921.84
2018-07-02T14:09:59.957Z,100911.40
2018-07-02T14:12:26.019Z,100918.53
2018-07-02T14:14:52.044Z,100915.53
2018-07-02T14:17:18.016Z,100903.93
2018-07-02T14:19:43.983Z,100896.64
2018-07-02T14:22:09.973Z,100900.95
2018-07-02T14:24:35.946Z,100895.31
2018-07-02T14:27:01.967Z,100894.81
2018-07-02T14:29:27.945Z,100893.50
2018-07-02T14:31:53.944Z,100893.66
2018-07-02T14:34:19.913Z,100889.35
2018-07-02T14:36:45.876Z,100888.06
2018-07-02T14:39:11.903Z,100886.20
2018-07-02T14:41:37.858Z,100876.73
2018-07-02T14:44:03.823Z,100887.02
2018-07-02T14:46:29.801Z,100890.50
2018-07-02T14:48:55.776Z,100889.53
2018-07-02T14:51:21.741Z,100890.35
2018-07-02T14:53:47.720Z,100879.72
2018-07-02T14:56:13.689Z,100881.39
2018-07-02T14:58:39.756Z,100879.57
2018-07-02T15:01:05.735Z,100870.59
2018-07-02T15:03:31.717Z,100874.25
2018-07-02T15:05:57.694Z,100868.95
2018-07-02T15:08:23.653Z,100866.63
2018-07-02T15:10:49.631Z,100868.63
2018-07-02T15:13:15.604Z,100869.95
2018-07-02T15:15:41.587Z,100871.11
2018-07-02T15:18:07.594Z,100868.30
2018-07-02T15:20:33.529Z,100874.27
2018-07-02T15:22:59.560Z,100869.81
2018-07-02T15:25:25.513Z,100868.96
2018-07-02T15:27:51.507Z,100881.72
2018-07-02T15:30:17.468Z,100878.55
2018-07-02T15:32:43.569Z,100877.61
2018-07-02T15:35:09.553Z,100880.08
2018-07-02T15:37:35.567Z,100884.58
2018-07-02T15:40:01.528Z,100883.53
2018-07-02T15:42:27.515Z,100883.03
2018-07-02T15:44:53.524Z,100876.75
2018-07-02T15:47:19.642Z,100875.58
2018-07-02T15:49:45.624Z,100870.61
2018-07-02T15:52:11.593Z,100877.23
2018-07-02T15:54:37.572Z,100877.89
2018-07-02T15:57:03.543Z,100870.59
2018-07-02T15:59:29.528Z,100871.94
2018-07-02T16:01:55.490Z,100872.09
2018-07-02T16:04:21.504Z,100873.63
2018-07-02T16:06:47.456Z,100871.61
2018-07-02T16:09:13.533Z,100871.11
2018-07-02T16:11:39.527Z,100864.64
2018-07-02T16:14:05.519Z,100862.66
2018-07-02T16:16:31.504Z,100862.66
2018-07-02T16:18:57.477Z,100867.66
2018-07-02T16:21:23.453Z,100860.34
2018-07-02T16:23:49.430Z,100857.37
2018-07-02T16:26:15.411Z,100858.66
2018-07-02T16:28:41.401Z,100859.34
2018-07-02T16:31:07.389Z,100856.52
2018-07-02T16:33:33.370Z,100856.36
2018-07-02T16:35:59.372Z,100859.02
2018-07-02T16:38:25.332Z,100857.34
2018-07-02T16:40:51.308Z,100863.33
2018-07-02T16:43:17.267Z,100863.48
2018-07-02T16:45:43.261Z,100860.31
2018-07-02T16:48:09.253Z,100856.53
2018-07-02T16:50:35.250Z,100857.70
2018-07-02T16:53:01.238Z,100855.53
2018-07-02T16:55:27.226Z,100856.38
2018-07-02T16:57:53.248Z,100851.73
2018-07-02T17:00:19.244Z,100848.69
2018-07-02T17:02:45.236Z,100850.84
2018-07-02T17:05:11.244Z,100846.73
2018-07-02T17:07:37.255Z,100849.58
2018-07-02T17:10:03.271Z,100851.05
2018-07-02T17:12:29.251Z,100861.66
2018-07-02T17:14:55.221Z,100857.17
2018-07-02T17:17:21.216Z,100857.20
2018-07-02T17:19:47.288Z,100858.20
2018-07-02T17:22:13.388Z,100851.72
2018-07-02T17:24:39.398Z,100862.52
2018-07-02T17:27:05.360Z,100858.52
2018-07-02T17:29:31.392Z,100858.86
2018-07-02T17:31:57.364Z,100853.89
2018-07-02T17:34:23.342Z,100861.33
2018-07-02T17:36:49.320Z,100857.34
2018-07-02T17:39:15.375Z,100864.98
2018-07-02T17:41:41.370Z,100865.66
2018-07-02T17:44:07.404Z,100862.00
2018-07-02T17:46:33.394Z,100865.16
2018-07-02T17:48:59.363Z,100867.31
2018-07-02T17:51:25.346Z,100867.94
2018-07-02T17:53:51.331Z,100872.13
2018-07-02T17:56:17.300Z,100867.61
2018-07-02T17:58:43.283Z,100866.97
2018-07-02T18:01:09.322Z,100872.45
2018-07-02T18:03:35.253Z,100863.65
2018-07-02T18:06:01.338Z,100865.81
2018-07-02T18:08:27.351Z,100867.30
2018-07-02T18:10:53.327Z,100865.16
2018-07-02T18:13:19.384Z,100866.81
2018-07-02T18:15:45.429Z,100870.98
2018-07-02T18:18:11.399Z,100878.09
2018-07-02T18:20:37.444Z,100871.77
2018-07-02T18:23:03.399Z,100871.63
2018-07-02T18:25:29.412Z,100873.61
2018-07-02T18:27:55.572Z,100881.09
2018-07-02T18:30:21.536Z,100883.91
2018-07-02T18:32:47.524Z,100883.90
2018-07-02T18:35:13.577Z,100886.73
2018-07-02T18:37:39.570Z,100889.22
2018-07-02T18:40:05.539Z,100887.21
2018-07-02T18:42:31.528Z,100891.53
2018-07-02T18:44:57.526Z,100893.68
2018-07-02T18:47:23.532Z,100895.83
2018-07-02T18:49:49.780Z,100891.86
2018-07-02T18:52:15.770Z,100885.89
2018-07-02T18:54:41.912Z,100899.83
2018-07-02T18:57:07.919Z,100903.81
2018-07-02T18:59:33.903Z,100912.94
2018-07-02T19:01:59.896Z,100905.31
2018-07-02T19:04:25.861Z,100904.14
2018-07-02T19:06:52.775Z,100906.80
2018-07-02T19:09:18.829Z,100907.78
2018-07-02T19:11:44.827Z,100911.28
2018-07-02T19:14:10.860Z,100905.66
2018-07-02T19:16:36.937Z,100909.96
2018-07-02T19:19:02.992Z,100916.08
2018-07-02T19:21:28.999Z,100912.77
2018-07-02T19:23:55.014Z,100914.42
2018-07-02T19:26:21.000Z,100918.73
2018-07-02T19:28:46.960Z,100920.07
2018-07-02T19:31:13.014Z,100920.36
2018-07-02T19:33:39.012Z,100928.81
2018-07-02T19:36:05.059Z,100932.02
2018-07-02T19:38:31.143Z,100929.14
2018-07-02T19:40:57.241Z,100934.82
2018-07-02T19:43:23.375Z,100941.97
2018-07-02T19:45:49.408Z,100942.92
2018-07-02T19:48:16.035Z,100945.95
2018-07-02T19:50:42.121Z,100947.22
2018-07-02T19:53:08.145Z,100961.34
2018-07-02T19:55:34.140Z,100957.55
2018-07-02T19:58:00.117Z,100965.98
2018-07-02T20:00:26.224Z,100969.30
2018-07-02T20:02:52.322Z,100964.52
2018-07-02T20:05:18.297Z,100967.44
2018-07-02T20:07:44.309Z,100974.59
2018-07-02T20:10:10.330Z,100975.63
2018-07-02T20:12:36.368Z,100975.27
2018-07-02T20:15:02.370Z,100976.77
2018-07-02T20:17:28.339Z,100984.42
2018-07-02T20:19:54.445Z,100982.22
2018-07-02T20:22:20.461Z,100986.37
2018-07-02T20:24:46.442Z,100989.36
2018-07-02T20:27:12.489Z,100985.55
2018-07-02T20:29:38.507Z,100992.34
2018-07-02T20:32:04.481Z,100988.84
2018-07-02T20:34:30.479Z,100991.69
2018-07-02T20:36:56.786Z,100999.31
2018-07-02T20:39:22.779Z,100995.63
2018-07-02T20:41:48.840Z,101000.13
2018-07-02T20:44:14.844Z,100995.48
2018-07-02T20:46:40.838Z,100995.36
2018-07-02T20:49:06.866Z,100992.68
2018-07-02T20:51:32.937Z,100999.03
2018-07-02T20:53:58.995Z,101001.02
2018-07-02T20:56:24.970Z,101002.63
2018-07-02T20:58:50.950Z,101002.94
2018-07-02T21:01:16.957Z,100999.95
2018-07-02T21:03:42.961Z,101009.89
2018-07-02T21:06:08.937Z,101006.77
2018-07-02T21:08:34.920Z,101009.25
2018-07-02T21:11:00.970Z,101003.94
2018-07-02T21:13:27.327Z,101008.24
2018-07-02T21:15:53.393Z,101007.91
2018-07-02T21:18:19.588Z,101005.43
2018-07-02T21:20:45.600Z,101014.56
2018-07-02T21:23:11.591Z,101010.47
2018-07-02T21:25:37.588Z,101013.13
2018-07-02T21:28:03.574Z,101015.39
2018-07-02T21:30:29.565Z,101020.35
2018-07-02T21:32:55.571Z,101024.16
2018-07-02T21:35:21.551Z,101025.47
2018-07-02T21:37:47.531Z,101032.78
2018-07-02T21:40:13.508Z,101028.43
2018-07-02T21:42:39.500Z,101028.26
2018-07-02T21:45:05.462Z,101025.25
2018-07-02T21:47:31.492Z,101022.12
2018-07-02T21:49:57.511Z,101040.87
2018-07-02T21:52:23.512Z,101038.32
2018-07-02T21:54:49.511Z,101038.17
2018-07-02T21:57:15.538Z,101038.02
2018-07-02T21:59:41.770Z,101036.39
2018-07-02T22:02:07.781Z,101038.89
2018-07-02T22:04:33.745Z,101044.41
2018-07-02T22:06:59.727Z,101040.64
2018-07-02T22:09:25.684Z,101040.66
2018-07-02T22:11:51.680Z,101049.46
2018-07-02T22:14:17.749Z,101052.44
2018-07-02T22:16:43.983Z,101054.34
2018-07-02T22:19:09.943Z,101054.13
2018-07-02T22:21:35.905Z,101055.64
2018-07-02T22:24:02.178Z,101060.77
2018-07-02T22:26:28.188Z,101063.77
2018-07-02T22:28:54.153Z,101062.57
2018-07-02T22:31:20.137Z,101063.57
2018-07-02T22:33:46.133Z,101070.34
2018-07-02T22:36:12.342Z,101069.20
2018-07-02T22:38:38.321Z,101070.87
2018-07-02T22:41:04.324Z,101065.92
2018-07-02T22:43:30.545Z,101071.17
2018-07-02T22:45:56.449Z,101064.06
2018-07-02T22:48:22.672Z,101066.72
2018-07-02T22:50:48.681Z,101063.72
2018-07-02T22:53:14.705Z,101065.59
2018-07-02T22:55:40.693Z,101065.92
2018-07-02T22:58:06.668Z,101070.05
2018-07-02T23:00:32.635Z,101069.32
2018-07-02T23:02:58.606Z,101061.19
2018-07-02T23:05:24.595Z,101066.31
2018-07-02T23:07:50.568Z,101077.57
2018-07-02T23:10:16.567Z,101076.59
2018-07-02T23:12:42.539Z,101079.40
2018-07-02T23:15:08.496Z,101077.28
2018-07-02T23:17:34.501Z,101084.73
2018-07-02T23:20:00.517Z,101080.45
2018-07-02T23:22:26.520Z,101082.29
2018-07-02T23:24:52.535Z,101088.41
2018-07-02T23:27:18.535Z,101083.11
2018-07-02T23:29:44.539Z,101078.30
2018-07-02T23:32:10.511Z,101080.45
2018-07-02T23:34:36.503Z,101084.77
2018-07-02T23:37:02.756Z,101088.06
2018-07-02T23:39:28.749Z,101087.20
2018-07-02T23:41:54.732Z,101086.02
2018-07-02T23:44:20.734Z,101083.23
2018-07-02T23:46:46.705Z,101084.87
2018-07-02T23:49:12.684Z,101094.30
2018-07-02T23:51:38.683Z,101095.98
2018-07-02T23:54:04.690Z,101097.64
2018-07-02T23:56:30.679Z,101104.51
2018-07-02T23:58:56.655Z,101112.97
